Time;durP1;ratioP1;P1;durP2;ratioP2;P2;SDS_P1;SDS_P2;PMS_P1;PMS_P2;Temp;Humidity;BMP_temperature;BMP_pressure;BME280_temperature;BME280_humidity;BME280_pressure;Samples;Min_cycle;Max_cycle;Signal;HPM_P1;HPM_P2
2021/04/18 00:02:11;;;;;;;65.82;34.10;;;;;;;;;;5055126;28;20084;-62
2021/04/18 00:04:57;;;;;;;73.47;40.10;;;;;;;;;;5054770;28;20445;-62
2021/04/18 00:07:42;;;;;;;49.83;30.77;;;;;;;;;;5055175;28;20045;-62
2021/04/18 00:10:27;;;;;;;57.85;31.60;;;;;;;;;;5054331;28;20048;-62
2021/04/18 00:13:13;;;;;;;48.58;30.17;;;;;;;;;;5054758;28;20049;-63
2021/04/18 00:15:59;;;;;;;60.55;33.40;;;;;;;;;;5054901;28;20048;-62
2021/04/18 00:18:44;;;;;;;53.25;28.83;;;;;;;;;;5054819;28;20052;-63
2021/04/18 00:21:30;;;;;;;45.25;24.77;;;;;;;;;;5054207;28;20056;-63
2021/04/18 00:24:15;;;;;;;44.80;30.52;;;;;;;;;;5054737;28;20052;-62
2021/04/18 00:27:01;;;;;;;55.78;29.40;;;;;;;;;;5054612;28;20073;-62
2021/04/18 00:29:46;;;;;;;53.83;33.40;;;;;;;;;;5054329;28;20514;-62
2021/04/18 00:32:32;;;;;;;40.33;25.15;;;;;;;;;;5054414;28;20049;-63
2021/04/18 00:35:19;;;;;;;55.70;32.25;;;;;;;;;;5054265;28;20049;-62
2021/04/18 00:38:04;;;;;;;78.20;40.00;;;;;;;;;;5054453;28;20045;-61
2021/04/18 00:40:50;;;;;;;80.80;41.53;;;;;;;;;;5054271;28;20072;-63
2021/04/18 00:43:40;;;;;;;60.90;33.78;;;;;;;;;;5054231;28;20052;-63
2021/04/18 00:46:25;;;;;;;70.78;34.08;;;;;;;;;;5054266;28;20124;-62
2021/04/18 00:49:11;;;;;;;77.18;44.20;;;;;;;;;;5054363;28;20056;-62
2021/04/18 00:51:56;;;;;;;84.57;46.13;;;;;;;;;;5054029;28;20041;-62
2021/04/18 00:54:41;;;;;;;143.15;61.53;;;;;;;;;;5053153;28;20114;-62
2021/04/18 00:57:27;;;;;;;339.15;78.65;;;;;;;;;;5054030;28;20418;-62
2021/04/18 01:00:12;;;;;;;156.25;62.60;;;;;;;;;;5025164;28;20045;-62
2021/04/18 01:02:58;;;;;;;95.35;40.60;;;;;;;;;;5053764;28;20072;-62
2021/04/18 01:05:44;;;;;;;148.45;46.88;;;;;;;;;;5052822;28;20499;-62
2021/04/18 01:08:30;;;;;;;102.53;40.22;;;;;;;;;;5053850;28;20052;-63
2021/04/18 01:11:16;;;;;;;128.05;50.35;;;;;;;;;;5053493;28;20045;-62
2021/04/18 01:14:02;;;;;;;91.18;41.35;;;;;;;;;;5053420;28;20522;-62
2021/04/18 01:16:47;;;;;;;133.02;58.90;;;;;;;;;;5052791;28;20049;-62
2021/04/18 01:19:33;;;;;;;221.80;74.75;;;;;;;;;;5053475;28;20419;-62
2021/04/18 01:22:19;;;;;;;141.05;64.03;;;;;;;;;;5053456;28;20049;-62
2021/04/18 01:25:24;;;;;;;96.55;48.45;;;;;;;;;;5033571;28;20046;-62
2021/04/18 01:28:13;;;;;;;91.68;46.58;;;;;;;;;;5033529;28;20128;-62
2021/04/18 01:31:01;;;;;;;174.50;64.75;;;;;;;;;;5033347;28;20049;-62
2021/04/18 01:33:48;;;;;;;305.58;79.10;;;;;;;;;;5038412;28;20048;-62
2021/04/18 01:36:33;;;;;;;371.50;91.38;;;;;;;;;;5053241;28;20044;-62
2021/04/18 01:39:18;;;;;;;458.40;102.13;;;;;;;;;;5038142;28;20041;-62
2021/04/18 01:42:04;;;;;;;432.73;100.68;;;;;;;;;;5053140;28;20041;-63
2021/04/18 01:44:50;;;;;;;368.98;88.03;;;;;;;;;;5052835;28;20411;-62
2021/04/18 01:47:35;;;;;;;400.75;89.65;;;;;;;;;;5053080;28;20052;-62
2021/04/18 01:50:21;;;;;;;317.70;85.28;;;;;;;;;;5051789;28;20037;-62
2021/04/18 01:53:06;;;;;;;311.30;70.20;;;;;;;;;;5052889;28;20518;-62
2021/04/18 01:55:52;;;;;;;314.63;80.30;;;;;;;;;;5051281;28;20120;-62
2021/04/18 01:58:38;;;;;;;309.70;84.68;;;;;;;;;;5052961;28;20052;-62
2021/04/18 02:01:29;;;;;;;155.60;55.28;;;;;;;;;;5052563;28;20453;-63
2021/04/18 02:04:20;;;;;;;185.00;60.08;;;;;;;;;;5051456;28;20143;-62
2021/04/18 02:07:09;;;;;;;177.57;47.35;;;;;;;;;;5024035;28;20098;-62
2021/04/18 02:09:54;;;;;;;71.45;26.95;;;;;;;;;;5037207;28;20048;-62
2021/04/18 02:12:40;;;;;;;88.50;32.35;;;;;;;;;;5037616;28;20041;-62
2021/04/18 02:15:26;;;;;;;151.13;39.63;;;;;;;;;;5027635;28;20539;-62
2021/04/18 02:18:14;;;;;;;103.85;27.40;;;;;;;;;;5051511;28;20045;-62
2021/04/18 02:21:01;;;;;;;365.80;68.28;;;;;;;;;;5051401;28;20052;-62
2021/04/18 02:23:46;;;;;;;149.00;45.78;;;;;;;;;;5052449;28;20083;-63
2021/04/18 02:26:32;;;;;;;46.70;25.67;;;;;;;;;;5052171;28;20045;-62
2021/04/18 02:29:17;;;;;;;61.92;30.98;;;;;;;;;;5052412;28;20045;-62
2021/04/18 02:32:12;;;;;;;232.20;60.47;;;;;;;;;;5037190;28;20117;-62
2021/04/18 02:35:07;;;;;;;330.70;81.15;;;;;;;;;;5051761;28;20073;-62
2021/04/18 02:37:52;;;;;;;295.92;74.22;;;;;;;;;;5051326;28;20045;-62
2021/04/18 02:40:38;;;;;;;265.38;74.10;;;;;;;;;;5052010;28;20107;-63
2021/04/18 02:43:23;;;;;;;418.02;92.35;;;;;;;;;;5052081;28;20080;-63
2021/04/18 02:46:11;;;;;;;267.00;72.50;;;;;;;;;;5051954;28;20133;-63
2021/04/18 02:48:56;;;;;;;411.55;84.72;;;;;;;;;;5051082;28;20056;-62
2021/04/18 02:51:42;;;;;;;309.58;70.45;;;;;;;;;;5050804;28;20497;-62
2021/04/18 02:54:28;;;;;;;304.35;65.25;;;;;;;;;;5036969;28;20064;-63
2021/04/18 02:57:18;;;;;;;615.40;103.32;;;;;;;;;;5044727;28;20052;-63
2021/04/18 03:00:04;;;;;;;299.42;67.72;;;;;;;;;;5051675;28;20442;-63
2021/04/18 03:02:52;;;;;;;470.70;83.15;;;;;;;;;;5050903;28;20041;-62
2021/04/18 03:05:39;;;;;;;437.10;86.05;;;;;;;;;;5050795;28;20649;-62
2021/04/18 03:08:26;;;;;;;319.30;71.88;;;;;;;;;;5031858;28;20052;-63
2021/04/18 03:11:12;;;;;;;322.45;58.63;;;;;;;;;;5003071;28;20046;-63
2021/04/18 03:13:58;;;;;;;270.92;50.28;;;;;;;;;;5016862;28;20500;-63
2021/04/18 03:16:43;;;;;;;353.35;71.05;;;;;;;;;;5034340;28;20045;-62
2021/04/18 03:19:28;;;;;;;278.27;55.63;;;;;;;;;;5054138;28;20045;-62
2021/04/18 03:22:18;;;;;;;559.33;98.93;;;;;;;;;;5055831;28;20045;-62
2021/04/18 03:25:05;;;;;;;286.25;68.15;;;;;;;;;;5041659;28;20099;-62
2021/04/18 03:27:51;;;;;;;563.45;108.22;;;;;;;;;;5055824;28;20128;-63
2021/04/18 03:30:45;;;;;;;988.83;170.18;;;;;;;;;;5040437;28;20061;-63
2021/04/18 03:33:35;;;;;;;510.63;94.72;;;;;;;;;;5040654;28;20049;-62
2021/04/18 03:36:25;;;;;;;727.58;126.00;;;;;;;;;;5020579;28;20495;-63
2021/04/18 03:39:14;;;;;;;747.75;126.55;;;;;;;;;;5020697;28;20045;-61
2021/04/18 03:42:02;;;;;;;646.80;114.30;;;;;;;;;;5020820;28;20107;-62
2021/04/18 03:44:49;;;;;;;699.92;111.90;;;;;;;;;;5026832;28;20045;-62
2021/04/18 03:47:35;;;;;;;485.05;91.18;;;;;;;;;;5040260;28;20053;-63
2021/04/18 03:50:24;;;;;;;446.17;79.07;;;;;;;;;;5055170;28;20056;-62
2021/04/18 03:53:33;;;;;;;345.38;61.83;;;;;;;;;;5055072;28;20048;-62
2021/04/18 03:56:23;;;;;;;225.10;49.90;;;;;;;;;;5054827;28;20051;-63
2021/04/18 03:59:11;;;;;;;50.33;24.58;;;;;;;;;;5055122;28;20467;-62
2021/04/18 04:01:56;;;;;;;215.32;45.03;;;;;;;;;;5055086;28;20124;-61
2021/04/18 04:04:42;;;;;;;281.17;56.17;;;;;;;;;;5054712;28;20045;-63
2021/04/18 04:07:28;;;;;;;176.65;46.70;;;;;;;;;;5020187;28;20072;-62
2021/04/18 04:10:14;;;;;;;119.28;37.03;;;;;;;;;;5019859;28;20054;-62
2021/04/18 04:13:04;;;;;;;410.27;68.20;;;;;;;;;;5019810;28;20049;-63
2021/04/18 04:15:51;;;;;;;244.52;50.05;;;;;;;;;;5025866;28;20045;-62
2021/04/18 04:18:38;;;;;;;302.42;55.50;;;;;;;;;;5053724;28;20637;-63
2021/04/18 04:21:42;;;;;;;121.72;35.83;;;;;;;;;;5054614;28;20060;-62
2021/04/18 04:24:54;;;;;;;316.48;56.15;;;;;;;;;;5054450;28;20511;-63
2021/04/18 04:27:39;;;;;;;176.27;40.95;;;;;;;;;;5054329;28;20076;-62
2021/04/18 04:30:25;;;;;;;294.00;52.58;;;;;;;;;;5053942;28;20044;-62
2021/04/18 04:33:10;;;;;;;276.67;46.72;;;;;;;;;;5054427;28;20049;-63
2021/04/18 04:35:55;;;;;;;459.00;91.13;;;;;;;;;;5054147;28;20120;-62
2021/04/18 04:38:41;;;;;;;350.45;70.38;;;;;;;;;;5054541;28;20049;-62
2021/04/18 04:41:28;;;;;;;426.33;85.80;;;;;;;;;;5054139;28;20433;-62
2021/04/18 04:44:16;;;;;;;371.45;78.47;;;;;;;;;;5054164;28;20049;-62
2021/04/18 04:47:02;;;;;;;327.77;73.50;;;;;;;;;;5054140;28;20048;-62
2021/04/18 04:49:47;;;;;;;290.42;65.32;;;;;;;;;;5053982;28;20139;-62
2021/04/18 04:52:32;;;;;;;247.13;66.25;;;;;;;;;;5054024;28;20037;-63
2021/04/18 04:55:18;;;;;;;229.90;61.92;;;;;;;;;;5054210;28;20134;-62
2021/04/18 04:58:03;;;;;;;198.95;53.45;;;;;;;;;;5053713;28;20514;-62
2021/04/18 05:00:48;;;;;;;171.45;53.47;;;;;;;;;;5053717;28;20056;-63
2021/04/18 05:03:58;;;;;;;159.80;46.95;;;;;;;;;;5059767;23;20530;31
2021/04/18 05:06:44;;;;;;;156.32;42.95;;;;;;;;;;5026881;28;20128;-63
2021/04/18 05:09:29;;;;;;;230.18;59.85;;;;;;;;;;5034150;28;20512;-63
2021/04/18 05:12:15;;;;;;;249.02;73.53;;;;;;;;;;5034527;28;20050;-63
2021/04/18 05:15:01;;;;;;;217.70;68.15;;;;;;;;;;5034457;28;20046;-63
2021/04/18 05:17:46;;;;;;;299.55;74.95;;;;;;;;;;5032980;28;20057;-63
2021/04/18 05:20:32;;;;;;;381.63;84.55;;;;;;;;;;5034012;28;20076;-63
2021/04/18 05:23:17;;;;;;;390.75;93.05;;;;;;;;;;5034641;28;20045;-63
2021/04/18 05:26:02;;;;;;;343.65;89.22;;;;;;;;;;5033821;28;20491;-63
2021/04/18 05:28:48;;;;;;;448.30;94.47;;;;;;;;;;5034311;28;20053;-63
2021/04/18 05:31:33;;;;;;;208.13;53.97;;;;;;;;;;5033811;28;20053;-63
2021/04/18 05:34:18;;;;;;;215.40;52.83;;;;;;;;;;5033747;28;20127;-63
2021/04/18 05:37:05;;;;;;;334.60;83.38;;;;;;;;;;5033755;28;20042;-63
2021/04/18 05:39:50;;;;;;;325.67;87.63;;;;;;;;;;5033433;28;20095;-63
2021/04/18 05:42:35;;;;;;;284.92;77.63;;;;;;;;;;5032877;28;20053;-64
2021/04/18 05:45:21;;;;;;;217.85;61.40;;;;;;;;;;5033675;28;20116;-63
2021/04/18 05:48:06;;;;;;;195.65;59.20;;;;;;;;;;5033107;28;20038;-63
2021/04/18 05:50:51;;;;;;;199.40;72.00;;;;;;;;;;5033052;28;20042;-64
2021/04/18 05:53:37;;;;;;;98.38;46.78;;;;;;;;;;5033252;28;20045;-63
2021/04/18 05:56:22;;;;;;;121.55;56.28;;;;;;;;;;5033147;28;20080;-64
2021/04/18 05:59:07;;;;;;;110.07;53.95;;;;;;;;;;5032656;28;20045;-64
2021/04/18 06:01:52;;;;;;;76.55;44.97;;;;;;;;;;5032850;28;20041;-63
2021/04/18 06:04:38;;;;;;;65.13;41.70;;;;;;;;;;5032760;28;20117;-63
2021/04/18 06:07:23;;;;;;;55.85;34.20;;;;;;;;;;5032492;28;20045;-63
2021/04/18 06:10:09;;;;;;;54.90;33.80;;;;;;;;;;5032790;28;20049;-64
2021/04/18 06:12:54;;;;;;;50.30;34.03;;;;;;;;;;5032877;28;20045;-63
2021/04/18 06:15:40;;;;;;;50.63;33.88;;;;;;;;;;5032693;28;20143;-64
2021/04/18 06:18:25;;;;;;;53.92;36.67;;;;;;;;;;5029742;28;20450;-64
2021/04/18 06:21:11;;;;;;;38.75;28.65;;;;;;;;;;5032258;28;20474;-64
2021/04/18 06:23:56;;;;;;;42.67;33.53;;;;;;;;;;5032440;28;20050;-64
2021/04/18 06:26:41;;;;;;;22.35;19.38;;;;;;;;;;5032620;28;20049;-64
2021/04/18 06:29:27;;;;;;;31.83;25.83;;;;;;;;;;5032046;28;20041;-64
2021/04/18 06:32:12;;;;;;;35.00;27.05;;;;;;;;;;5032040;28;20045;-64
2021/04/18 06:34:57;;;;;;;30.67;23.65;;;;;;;;;;5032648;28;20046;-64
2021/04/18 06:37:43;;;;;;;41.50;31.08;;;;;;;;;;5031790;28;20037;-64
2021/04/18 06:40:28;;;;;;;32.60;28.88;;;;;;;;;;5032919;28;20450;-63
2021/04/18 06:43:14;;;;;;;41.47;33.95;;;;;;;;;;5032265;28;20045;-64
2021/04/18 06:45:59;;;;;;;26.90;22.92;;;;;;;;;;5017667;28;20045;-64
2021/04/18 06:48:45;;;;;;;36.13;27.63;;;;;;;;;;5033264;28;20045;-64
2021/04/18 06:51:30;;;;;;;25.98;19.52;;;;;;;;;;5032155;28;20045;-64
2021/04/18 06:54:15;;;;;;;40.92;32.80;;;;;;;;;;5031618;28;20103;-64
2021/04/18 06:57:01;;;;;;;36.38;28.90;;;;;;;;;;5032702;28;20124;-64
2021/04/18 06:59:46;;;;;;;20.88;18.55;;;;;;;;;;5032429;28;20073;-64
2021/04/18 07:02:32;;;;;;;17.95;15.52;;;;;;;;;;5032985;28;20049;-63
2021/04/18 07:05:18;;;;;;;16.40;13.40;;;;;;;;;;4993424;28;20046;-64
2021/04/18 07:08:12;;;;;;;19.25;14.50;;;;;;;;;;4993521;28;20512;-64
2021/04/18 07:11:14;;;;;;;18.70;15.32;;;;;;;;;;4978996;28;20050;-64
2021/04/18 07:13:59;;;;;;;17.92;15.30;;;;;;;;;;5011276;28;20515;-63
2021/04/18 07:16:44;;;;;;;18.52;15.55;;;;;;;;;;5019146;28;20033;-64
2021/04/18 07:19:29;;;;;;;15.65;13.50;;;;;;;;;;5033287;28;20064;-63
2021/04/18 07:22:28;;;;;;;14.77;12.48;;;;;;;;;;5034125;28;20042;-64
2021/04/18 07:25:13;;;;;;;16.02;12.90;;;;;;;;;;5033619;28;20046;-64
2021/04/18 07:27:59;;;;;;;19.23;16.38;;;;;;;;;;5029232;28;20677;-64
2021/04/18 07:30:47;;;;;;;14.13;11.40;;;;;;;;;;5029413;28;20041;-64
2021/04/18 07:33:32;;;;;;;12.95;10.50;;;;;;;;;;5031552;28;20049;-64
2021/04/18 07:36:21;;;;;;;11.98;8.75;;;;;;;;;;5032933;28;20435;-64
2021/04/18 07:39:06;;;;;;;12.65;9.90;;;;;;;;;;5017723;28;20049;-64
2021/04/18 07:41:54;;;;;;;11.18;9.80;;;;;;;;;;5032822;28;20048;-64
2021/04/18 07:44:39;;;;;;;11.32;8.55;;;;;;;;;;5032721;28;20049;-64
2021/04/18 07:47:24;;;;;;;9.70;7.72;;;;;;;;;;5018265;28;20049;-64
2021/04/18 07:50:14;;;;;;;9.05;7.15;;;;;;;;;;5032919;28;20069;-64
2021/04/18 07:53:00;;;;;;;9.68;7.25;;;;;;;;;;5032802;28;20507;-64
2021/04/18 07:55:45;;;;;;;8.63;6.00;;;;;;;;;;5032375;28;20046;-64
2021/04/18 07:58:50;;;;;;;8.68;5.43;;;;;;;;;;5018573;28;20068;-64
2021/04/18 08:01:36;;;;;;;6.82;5.55;;;;;;;;;;5032769;28;20045;-64
2021/04/18 08:04:21;;;;;;;8.73;6.20;;;;;;;;;;5034102;28;20080;-64
2021/04/18 08:07:06;;;;;;;7.07;5.35;;;;;;;;;;5036823;28;20053;-64
2021/04/18 08:10:10;;;;;;;9.43;5.90;;;;;;;;;;5036966;28;20045;-64
2021/04/18 08:13:04;;;;;;;9.85;6.50;;;;;;;;;;5037302;28;20050;-64
2021/04/18 08:15:56;;;;;;;8.02;6.13;;;;;;;;;;4997137;28;20046;-64
2021/04/18 08:18:42;;;;;;;9.57;6.53;;;;;;;;;;4997515;28;20046;-64
2021/04/18 08:21:33;;;;;;;8.27;5.78;;;;;;;;;;4996768;28;20061;-64
2021/04/18 08:24:18;;;;;;;8.05;6.25;;;;;;;;;;5012097;28;20123;-64
2021/04/18 08:27:06;;;;;;;11.43;6.93;;;;;;;;;;5036320;28;20527;-64
2021/04/18 08:29:58;;;;;;;8.07;6.07;;;;;;;;;;5020880;28;20045;-64
2021/04/18 08:32:44;;;;;;;10.88;6.43;;;;;;;;;;5035930;28;20049;-64
2021/04/18 08:35:31;;;;;;;8.23;5.40;;;;;;;;;;5035348;28;20136;-64
2021/04/18 08:38:16;;;;;;;8.85;5.80;;;;;;;;;;5035577;28;20042;-64
2021/04/18 08:41:10;;;;;;;8.98;5.57;;;;;;;;;;5034483;28;20041;-64
2021/04/18 08:44:15;;;;;;;10.30;5.85;;;;;;;;;;5034202;28;20053;-64
2021/04/18 08:47:04;;;;;;;9.52;5.10;;;;;;;;;;5014591;28;20038;-64
2021/04/18 08:49:56;;;;;;;9.05;5.05;;;;;;;;;;5014282;28;20053;-64
2021/04/18 08:52:41;;;;;;;7.43;3.97;;;;;;;;;;5000261;28;20042;-64
2021/04/18 08:55:26;;;;;;;14.45;5.20;;;;;;;;;;5022370;28;20049;-64
2021/04/18 08:58:29;;;;;;;8.38;4.80;;;;;;;;;;5034172;28;20128;-64
2021/04/18 09:01:15;;;;;;;8.23;5.25;;;;;;;;;;5033975;28;20046;-64
2021/04/18 09:04:01;;;;;;;12.93;5.68;;;;;;;;;;5033925;28;20053;-64
2021/04/18 09:06:48;;;;;;;8.98;5.25;;;;;;;;;;5033713;28;20663;-64
2021/04/18 09:09:33;;;;;;;8.52;5.13;;;;;;;;;;5033636;28;20415;-64
2021/04/18 09:12:19;;;;;;;12.70;6.32;;;;;;;;;;5033933;28;20507;-63
2021/04/18 09:15:05;;;;;;;10.30;6.53;;;;;;;;;;5033694;28;20045;-64
2021/04/18 09:17:50;;;;;;;6.65;5.32;;;;;;;;;;5018436;28;20076;-64
2021/04/18 09:20:36;;;;;;;10.93;6.55;;;;;;;;;;5018728;28;20072;-64
2021/04/18 09:23:21;;;;;;;8.55;4.80;;;;;;;;;;5033685;28;20061;-64
2021/04/18 09:26:12;;;;;;;7.25;5.05;;;;;;;;;;5033622;28;20037;-64
2021/04/18 09:29:10;;;;;;;7.82;4.43;;;;;;;;;;5033817;28;20050;-65
2021/04/18 09:31:55;;;;;;;7.63;5.20;;;;;;;;;;5033650;28;20045;-64
2021/04/18 09:34:40;;;;;;;8.15;5.40;;;;;;;;;;5034506;28;20042;-65
2021/04/18 09:37:30;;;;;;;8.10;5.30;;;;;;;;;;5035024;28;20045;-65
2021/04/18 09:40:16;;;;;;;7.13;5.47;;;;;;;;;;5033124;28;20064;-64
2021/04/18 09:43:03;;;;;;;8.00;5.35;;;;;;;;;;5034786;28;20049;-65
2021/04/18 09:45:59;;;;;;;7.80;4.55;;;;;;;;;;5033634;28;20447;-64
2021/04/18 09:48:56;;;;;;;8.40;5.70;;;;;;;;;;5033231;28;20041;-64
2021/04/18 09:52:02;;;;;;;11.63;5.35;;;;;;;;;;5016114;28;20041;-65
2021/04/18 09:54:47;;;;;;;8.30;5.50;;;;;;;;;;5031020;28;20447;-65
2021/04/18 09:57:40;;;;;;;10.65;5.63;;;;;;;;;;5032824;28;20128;-65
2021/04/18 10:00:31;;;;;;;8.15;5.53;;;;;;;;;;5033415;28;20045;-65
2021/04/18 10:03:17;;;;;;;10.43;6.03;;;;;;;;;;5016087;28;20088;-65
2021/04/18 10:06:02;;;;;;;8.63;5.65;;;;;;;;;;5018257;28;20080;-64
2021/04/18 10:08:57;;;;;;;8.65;5.85;;;;;;;;;;5033208;28;20041;-65
2021/04/18 10:11:42;;;;;;;8.18;5.10;;;;;;;;;;5032380;28;20057;-64
2021/04/18 10:14:27;;;;;;;7.53;4.82;;;;;;;;;;5032981;28;20046;-64
2021/04/18 10:17:12;;;;;;;9.63;5.22;;;;;;;;;;5032818;28;20045;-64
2021/04/18 10:19:58;;;;;;;9.23;4.95;;;;;;;;;;5032193;28;20045;-64
2021/04/18 10:23:01;;;;;;;7.68;4.32;;;;;;;;;;5032229;28;20045;-64
2021/04/18 10:25:46;;;;;;;7.43;4.90;;;;;;;;;;5032470;28;20045;-64
2021/04/18 10:28:31;;;;;;;5.25;4.10;;;;;;;;;;5032285;28;20045;-64
2021/04/18 10:31:17;;;;;;;5.80;4.07;;;;;;;;;;5032135;28;20045;-65
2021/04/18 10:34:03;;;;;;;9.00;5.15;;;;;;;;;;4992820;28;20034;-64
2021/04/18 10:36:48;;;;;;;5.22;4.07;;;;;;;;;;4993106;28;20086;-64
2021/04/18 10:39:34;;;;;;;7.97;4.15;;;;;;;;;;5006005;28;20393;-64
2021/04/18 10:42:19;;;;;;;7.03;3.80;;;;;;;;;;5001183;28;20480;-64
2021/04/18 10:45:05;;;;;;;8.75;4.40;;;;;;;;;;5032269;28;20077;-64
2021/04/18 10:47:51;;;;;;;9.93;4.18;;;;;;;;;;5032263;28;20054;-64
2021/04/18 10:50:36;;;;;;;6.65;4.07;;;;;;;;;;5031814;28;20567;-64
2021/04/18 10:53:21;;;;;;;5.25;3.65;;;;;;;;;;5031757;28;20045;-64
2021/04/18 10:56:07;;;;;;;6.35;4.03;;;;;;;;;;5032096;28;20045;-64
2021/04/18 10:58:52;;;;;;;6.60;3.83;;;;;;;;;;5032094;28;20038;-64
2021/04/18 11:01:37;;;;;;;5.30;3.53;;;;;;;;;;5031612;28;20048;-64
2021/04/18 11:04:23;;;;;;;5.03;3.80;;;;;;;;;;5031291;28;20049;-64
2021/04/18 11:07:08;;;;;;;6.25;3.28;;;;;;;;;;5031970;28;20041;-64
2021/04/18 11:09:54;;;;;;;6.85;4.30;;;;;;;;;;5031527;28;20480;-64
2021/04/18 11:12:41;;;;;;;6.75;4.05;;;;;;;;;;5038893;22;20515;-64
2021/04/18 11:15:26;;;;;;;8.05;3.95;;;;;;;;;;5012129;28;20053;-64
2021/04/18 11:18:12;;;;;;;6.22;3.97;;;;;;;;;;5012255;28;20158;-64
2021/04/18 11:20:57;;;;;;;5.32;3.83;;;;;;;;;;5011652;28;20093;-64
2021/04/18 11:23:42;;;;;;;4.32;2.78;;;;;;;;;;5016473;28;20045;-64
2021/04/18 11:26:28;;;;;;;8.98;4.50;;;;;;;;;;5022950;28;20045;-64
2021/04/18 11:29:14;;;;;;;9.05;3.28;;;;;;;;;;5021902;28;20049;-64
2021/04/18 11:31:59;;;;;;;6.07;3.97;;;;;;;;;;5015783;28;20076;-64
2021/04/18 11:34:44;;;;;;;4.88;3.90;;;;;;;;;;5031410;28;20054;-64
2021/04/18 11:37:29;;;;;;;11.98;3.90;;;;;;;;;;5021897;28;20488;-64
2021/04/18 11:40:15;;;;;;;3.08;1.98;;;;;;;;;;5023075;28;20038;-64
2021/04/18 11:43:01;;;;;;;4.72;2.13;;;;;;;;;;5022185;28;20042;-64
2021/04/18 11:45:46;;;;;;;4.97;1.98;;;;;;;;;;5023708;28;20037;-64
2021/04/18 11:48:32;;;;;;;3.83;1.60;;;;;;;;;;5025164;28;20041;-64
2021/04/18 11:51:17;;;;;;;3.28;2.40;;;;;;;;;;5024731;28;20046;-64
2021/04/18 11:54:02;;;;;;;3.67;2.28;;;;;;;;;;5024099;28;20041;-64
2021/04/18 11:56:47;;;;;;;2.05;1.50;;;;;;;;;;5035134;28;20544;-64
2021/04/18 11:59:33;;;;;;;4.43;2.08;;;;;;;;;;4995426;28;20436;-64
2021/04/18 12:02:18;;;;;;;4.32;2.45;;;;;;;;;;4995784;28;20097;-64
2021/04/18 12:05:05;;;;;;;3.25;2.20;;;;;;;;;;4995655;28;20129;-64
2021/04/18 12:07:50;;;;;;;3.33;2.35;;;;;;;;;;5000812;28;20073;-64
2021/04/18 12:10:35;;;;;;;4.55;2.28;;;;;;;;;;5014733;28;20492;-64
2021/04/18 12:13:21;;;;;;;5.30;2.05;;;;;;;;;;5015078;28;20073;-64
2021/04/18 12:16:08;;;;;;;3.83;2.58;;;;;;;;;;4997473;28;20496;-64
2021/04/18 12:18:53;;;;;;;5.47;2.47;;;;;;;;;;5023101;28;20045;-64
2021/04/18 12:21:39;;;;;;;4.78;2.40;;;;;;;;;;5014707;28;20133;-64
2021/04/18 12:24:24;;;;;;;10.35;2.15;;;;;;;;;;5014799;28;20058;-64
2021/04/18 12:27:10;;;;;;;6.00;2.35;;;;;;;;;;5015045;28;20054;-64
2021/04/18 12:29:55;;;;;;;3.72;2.08;;;;;;;;;;5018793;28;20045;-63
2021/04/18 12:32:45;;;;;;;7.90;2.72;;;;;;;;;;5023060;28;20125;-64
2021/04/18 12:35:30;;;;;;;4.47;2.70;;;;;;;;;;5022663;28;20046;-63
2021/04/18 12:38:15;;;;;;;7.72;2.65;;;;;;;;;;5023816;28;20463;-63
2021/04/18 12:41:01;;;;;;;5.90;3.22;;;;;;;;;;5022217;28;20050;-63
2021/04/18 12:43:46;;;;;;;8.05;3.80;;;;;;;;;;5014730;28;20504;-63
2021/04/18 12:46:31;;;;;;;7.57;3.42;;;;;;;;;;5014576;28;20050;-64
2021/04/18 12:49:17;;;;;;;12.02;3.50;;;;;;;;;;5017666;28;20073;-64
2021/04/18 12:52:03;;;;;;;6.95;3.67;;;;;;;;;;5034208;28;20135;-64
2021/04/18 12:54:48;;;;;;;6.03;3.83;;;;;;;;;;5034133;28;20045;-64
2021/04/18 12:57:35;;;;;;;6.10;2.83;;;;;;;;;;5033790;28;20475;-63
2021/04/18 13:00:21;;;;;;;4.93;3.47;;;;;;;;;;5024539;28;20046;-64
2021/04/18 13:03:06;;;;;;;5.28;3.58;;;;;;;;;;5014320;28;20077;-64
2021/04/18 13:05:52;;;;;;;4.80;3.58;;;;;;;;;;5014222;28;20049;-64
2021/04/18 13:08:37;;;;;;;8.98;4.43;;;;;;;;;;4999251;28;20446;-64
2021/04/18 13:11:22;;;;;;;5.07;3.88;;;;;;;;;;5013633;28;20492;-64
2021/04/18 13:14:07;;;;;;;8.23;4.60;;;;;;;;;;5013545;28;20407;-64
2021/04/18 13:16:53;;;;;;;5.32;4.18;;;;;;;;;;5013922;28;20086;-64
2021/04/18 13:19:39;;;;;;;6.70;3.85;;;;;;;;;;5013663;28;20492;-63
2021/04/18 13:22:24;;;;;;;6.63;4.22;;;;;;;;;;5012780;28;20034;-63
2021/04/18 13:25:10;;;;;;;6.55;3.88;;;;;;;;;;5012982;28;20046;-62
2021/04/18 13:27:56;;;;;;;7.15;3.88;;;;;;;;;;5013882;28;20452;-63
2021/04/18 13:30:43;;;;;;;7.35;3.95;;;;;;;;;;5015860;28;20081;-63
2021/04/18 13:33:28;;;;;;;9.60;4.30;;;;;;;;;;5033412;28;20046;-64
2021/04/18 13:36:15;;;;;;;8.90;4.57;;;;;;;;;;5033393;28;20492;-63
2021/04/18 13:39:00;;;;;;;5.70;2.92;;;;;;;;;;5033411;28;20415;-64
2021/04/18 13:41:45;;;;;;;5.85;3.63;;;;;;;;;;5032478;28;20050;-64
2021/04/18 13:44:31;;;;;;;5.68;4.25;;;;;;;;;;5032445;28;20054;-63
2021/04/18 13:47:16;;;;;;;4.93;3.90;;;;;;;;;;5033264;28;20588;-63
2021/04/18 13:50:03;;;;;;;5.55;3.38;;;;;;;;;;5032731;28;20451;-63
2021/04/18 13:52:48;;;;;;;5.38;3.22;;;;;;;;;;5018729;28;20070;-63
2021/04/18 13:55:33;;;;;;;4.72;3.72;;;;;;;;;;5013020;28;20082;-63
2021/04/18 13:58:18;;;;;;;3.92;2.72;;;;;;;;;;5013071;28;20046;-62
2021/04/18 14:01:04;;;;;;;5.25;2.90;;;;;;;;;;5012841;28;20070;-62
2021/04/18 14:03:51;;;;;;;5.63;3.10;;;;;;;;;;5013437;28;20054;-62
2021/04/18 14:06:37;;;;;;;5.60;3.72;;;;;;;;;;5012740;28;20046;-62
2021/04/18 14:09:22;;;;;;;4.47;2.40;;;;;;;;;;5012700;28;20046;-62
2021/04/18 14:12:08;;;;;;;6.68;3.05;;;;;;;;;;5014453;28;20046;-62
2021/04/18 14:14:53;;;;;;;3.97;2.63;;;;;;;;;;5032182;28;20117;-63
2021/04/18 14:17:38;;;;;;;5.25;2.55;;;;;;;;;;5032609;28;20096;-62
2021/04/18 14:20:25;;;;;;;5.03;2.30;;;;;;;;;;5010528;28;20062;-63
2021/04/18 14:23:10;;;;;;;5.70;2.30;;;;;;;;;;5018193;28;20042;-64
2021/04/18 14:25:56;;;;;;;4.82;2.13;;;;;;;;;;5029714;28;20053;-63
2021/04/18 14:28:41;;;;;;;5.28;1.88;;;;;;;;;;5030261;28;20038;-63
2021/04/18 14:31:26;;;;;;;4.32;2.30;;;;;;;;;;5010493;28;20041;-63
2021/04/18 14:34:12;;;;;;;2.22;1.52;;;;;;;;;;5010187;28;20054;-63
2021/04/18 14:36:57;;;;;;;5.13;2.35;;;;;;;;;;5009735;28;20116;-63
2021/04/18 14:39:43;;;;;;;5.55;3.17;;;;;;;;;;5009919;28;20540;-63
2021/04/18 14:42:28;;;;;;;4.72;2.28;;;;;;;;;;5000034;28;20045;-63
2021/04/18 14:45:13;;;;;;;4.45;2.85;;;;;;;;;;5018816;28;20492;-63
2021/04/18 14:47:58;;;;;;;5.53;2.17;;;;;;;;;;5009562;28;20046;-63
2021/04/18 14:50:44;;;;;;;4.05;2.45;;;;;;;;;;5009555;28;20045;-63
2021/04/18 14:53:30;;;;;;;4.75;2.08;;;;;;;;;;5011108;28;20049;-63
2021/04/18 14:56:15;;;;;;;6.63;1.85;;;;;;;;;;5009462;28;20606;-63
2021/04/18 14:59:03;;;;;;;6.03;2.33;;;;;;;;;;5009767;28;20054;-63
2021/04/18 15:01:48;;;;;;;3.65;1.92;;;;;;;;;;5010299;28;20046;-62
2021/04/18 15:04:34;;;;;;;6.20;2.42;;;;;;;;;;5017347;28;20135;-62
2021/04/18 15:07:19;;;;;;;3.35;1.85;;;;;;;;;;5030016;28;20041;-62
2021/04/18 15:10:04;;;;;;;3.28;2.00;;;;;;;;;;5029142;28;20173;-62
2021/04/18 15:12:53;;;;;;;5.38;2.70;;;;;;;;;;5029226;28;20523;-63
2021/04/18 15:15:38;;;;;;;4.53;2.50;;;;;;;;;;5019131;28;20463;-63
2021/04/18 15:18:23;;;;;;;5.80;2.83;;;;;;;;;;4994683;28;20497;-62
2021/04/18 15:21:09;;;;;;;4.93;3.22;;;;;;;;;;4993416;28;20047;-62
2021/04/18 15:23:54;;;;;;;5.60;3.70;;;;;;;;;;4994099;28;20504;-62
2021/04/18 15:26:40;;;;;;;6.40;3.38;;;;;;;;;;5031899;28;20049;-62
2021/04/18 15:29:25;;;;;;;5.93;3.42;;;;;;;;;;5019077;28;20049;-62
2021/04/18 15:32:12;;;;;;;6.90;3.35;;;;;;;;;;5033001;28;20045;-62
2021/04/18 15:34:57;;;;;;;5.68;3.30;;;;;;;;;;5025921;28;20124;-62
2021/04/18 15:37:42;;;;;;;4.10;3.03;;;;;;;;;;5014257;28;20041;-62
2021/04/18 15:40:31;;;;;;;6.65;3.38;;;;;;;;;;5013164;28;20046;-63
2021/04/18 15:43:16;;;;;;;8.98;4.22;;;;;;;;;;5013915;28;20129;-62
2021/04/18 15:46:01;;;;;;;4.28;2.80;;;;;;;;;;5021065;28;20042;-62
2021/04/18 15:48:47;;;;;;;4.72;3.22;;;;;;;;;;5033103;28;20125;-62
2021/04/18 15:51:33;;;;;;;7.32;3.13;;;;;;;;;;5013135;28;20050;-62
2021/04/18 15:54:19;;;;;;;4.60;2.85;;;;;;;;;;5013802;28;20046;-62
2021/04/18 15:57:05;;;;;;;6.22;3.00;;;;;;;;;;5025872;28;20053;-62
2021/04/18 15:59:50;;;;;;;12.93;3.47;;;;;;;;;;5033091;28;20041;-62
2021/04/18 16:02:35;;;;;;;5.20;2.85;;;;;;;;;;4998820;28;20065;-62
2021/04/18 16:05:20;;;;;;;4.97;2.92;;;;;;;;;;5013175;28;20054;-62
2021/04/18 16:08:06;;;;;;;4.47;2.63;;;;;;;;;;5032048;28;20053;-63
2021/04/18 16:10:51;;;;;;;6.70;3.38;;;;;;;;;;5030689;28;20144;-63
2021/04/18 16:13:37;;;;;;;4.30;2.97;;;;;;;;;;5033039;28;20458;-62
2021/04/18 16:16:23;;;;;;;4.30;2.70;;;;;;;;;;5030656;28;20054;-62
2021/04/18 16:19:08;;;;;;;4.47;2.60;;;;;;;;;;5012433;28;20439;-62
2021/04/18 16:21:55;;;;;;;6.07;2.67;;;;;;;;;;5012015;28;20050;-63